Time;durP1;ratioP1;P1;durP2;ratioP2;P2;SDS_P1;SDS_P2;PMS_P1;PMS_P2;Temp;Humidity;BMP_temperature;BMP_pressure;BME280_temperature;BME280_humidity;BME280_pressure;Samples;Min_cycle;Max_cycle;Signal;HPM_P1;HPM_P2
2021/07/16 00:00:22;;;;;;;1.20;1.00;;;;;;;21.55;100.00;96256.56;5021971;28;20061;-54
2021/07/16 00:02:51;;;;;;;3.03;1.50;;;;;;;21.90;100.00;96263.31;5022807;28;20069;-50
2021/07/16 00:05:20;;;;;;;2.70;1.30;;;;;;;21.56;100.00;96258.22;5028386;28;20088;-48
2021/07/16 00:07:49;;;;;;;2.97;1.33;;;;;;;21.94;100.00;96256.44;5026318;28;20504;-52
2021/07/16 00:10:19;;;;;;;1.92;1.10;;;;;;;21.25;100.00;96256.34;5021331;28;21459;-47
2021/07/16 00:12:48;;;;;;;1.95;1.13;;;;;;;21.00;100.00;96256.31;5026649;28;20065;-53
2021/07/16 00:15:20;;;;;;;1.10;1.00;;;;;;;21.24;100.00;96253.91;5026680;28;20061;-47
2021/07/16 00:17:49;;;;;;;2.20;1.00;;;;;;;21.15;100.00;96249.81;5025952;28;20068;-47
2021/07/16 00:20:18;;;;;;;2.00;1.33;;;;;;;21.57;100.00;96248.28;5026701;28;20173;-52
2021/07/16 00:22:46;;;;;;;6.93;1.83;;;;;;;21.19;100.00;96257.22;5030349;28;20085;-52
2021/07/16 00:25:15;;;;;;;2.95;1.23;;;;;;;20.83;100.00;96258.66;5024742;28;20475;-47
2021/07/16 00:27:44;;;;;;;1.52;1.30;;;;;;;21.28;100.00;96255.09;5026965;28;20065;-47
2021/07/16 00:30:13;;;;;;;5.50;1.45;;;;;;;20.60;100.00;96253.00;5028190;28;20057;-51
2021/07/16 00:32:43;;;;;;;1.20;1.07;;;;;;;20.85;100.00;96248.56;5026545;28;20061;-46
2021/07/16 00:35:12;;;;;;;1.07;0.97;;;;;;;20.66;100.00;96259.38;5022930;28;20744;-45
2021/07/16 00:37:41;;;;;;;1.30;1.10;;;;;;;20.82;100.00;96256.22;5026899;28;20507;-50
2021/07/16 00:40:11;;;;;;;1.40;1.10;;;;;;;20.87;100.00;96261.72;5027683;28;20065;-48
2021/07/16 00:42:40;;;;;;;2.05;1.10;;;;;;;21.19;100.00;96267.94;5024012;28;20072;-49
2021/07/16 00:45:11;;;;;;;2.50;1.00;;;;;;;21.14;100.00;96275.00;5024946;28;20076;-48
2021/07/16 00:47:39;;;;;;;;;;;;;;;20.84;100.00;96275.56;5028612;28;20767;-49
2021/07/16 00:50:11;;;;;;;1.92;0.98;;;;;;;20.47;100.00;96275.25;5029416;28;20398;-47
2021/07/16 00:52:40;;;;;;;1.20;1.10;;;;;;;20.57;100.00;96275.66;5023132;28;20061;-49
2021/07/16 00:55:10;;;;;;;3.53;1.10;;;;;;;20.57;100.00;96280.22;5025278;28;20069;-48
2021/07/16 00:57:38;;;;;;;1.50;1.23;;;;;;;21.10;100.00;96277.28;5026423;28;20460;-47
2021/07/16 01:00:08;;;;;;;2.50;1.30;;;;;;;21.08;100.00;96285.53;5025839;28;20467;-46
2021/07/16 01:02:37;;;;;;;1.20;1.10;;;;;;;21.39;100.00;96270.53;5024985;28;20061;-46
2021/07/16 01:05:07;;;;;;;2.15;1.20;;;;;;;21.35;100.00;96268.50;5028031;28;20092;-48
2021/07/16 01:07:37;;;;;;;1.33;1.00;;;;;;;21.01;100.00;96270.53;5026189;28;20353;-47
2021/07/16 01:10:07;;;;;;;1.42;1.08;;;;;;;21.25;100.00;96267.06;5026621;28;20068;-47
2021/07/16 01:12:36;;;;;;;1.88;1.00;;;;;;;20.99;100.00;96268.06;5023085;28;20069;-48
2021/07/16 01:15:06;;;;;;;1.35;1.10;;;;;;;20.63;100.00;96268.66;5027095;28;20073;-47
2021/07/16 01:17:35;;;;;;;2.40;1.13;;;;;;;21.48;100.00;96263.03;5023849;28;20076;-51
2021/07/16 01:20:07;;;;;;;1.63;1.10;;;;;;;20.94;100.00;96262.53;5027536;28;20503;-51
2021/07/16 01:22:38;;;;;;;2.17;1.10;;;;;;;21.11;100.00;96260.16;5022155;28;21413;-51
2021/07/16 01:25:10;;;;;;;7.15;1.20;;;;;;;21.00;100.00;96253.63;5026758;28;20105;-51
2021/07/16 01:27:39;;;;;;;1.45;1.10;;;;;;;21.05;100.00;96253.78;5024156;28;20061;-47
2021/07/16 01:30:10;;;;;;;2.72;1.20;;;;;;;21.39;100.00;96249.06;5020523;28;20073;-49
2021/07/16 01:32:40;;;;;;;1.20;1.10;;;;;;;21.51;100.00;96250.00;5026774;28;20075;-49
2021/07/16 01:35:10;;;;;;;1.10;1.00;;;;;;;20.71;100.00;96259.53;5026974;28;20084;-52
2021/07/16 01:37:39;;;;;;;2.15;1.10;;;;;;;21.18;100.00;96258.25;5025311;28;20092;-52
2021/07/16 01:40:11;;;;;;;1.40;1.10;;;;;;;21.07;100.00;96250.91;5024271;28;20069;-47
2021/07/16 01:42:40;;;;;;;2.35;0.90;;;;;;;21.48;100.00;96255.81;5027212;28;20534;-47
2021/07/16 01:45:10;;;;;;;0.98;0.90;;;;;;;21.54;100.00;96252.25;5022690;28;20081;-50
2021/07/16 01:47:39;;;;;;;2.10;1.00;;;;;;;21.08;100.00;96255.22;5025789;28;20694;-50
2021/07/16 01:50:08;;;;;;;2.30;1.00;;;;;;;21.49;100.00;96260.13;5028663;28;20077;-48
2021/07/16 01:52:37;;;;;;;1.23;1.13;;;;;;;22.19;100.00;96251.88;5023173;28;20247;-51
2021/07/16 01:55:06;;;;;;;1.73;1.15;;;;;;;22.31;100.00;96249.28;5022672;28;20069;-50
2021/07/16 01:57:35;;;;;;;3.08;0.90;;;;;;;22.26;100.00;96258.03;5025046;28;20087;-48
2021/07/16 02:00:08;;;;;;;3.45;1.00;;;;;;;21.91;100.00;96259.56;5025363;28;20074;-48
2021/07/16 02:02:45;;;;;;;1.20;0.93;;;;;;;21.70;100.00;96258.09;5022775;28;20069;-51
2021/07/16 02:05:15;;;;;;;1.83;1.20;;;;;;;22.08;100.00;96257.13;5023239;28;20081;-49
2021/07/16 02:07:46;;;;;;;2.22;0.90;;;;;;;21.62;100.00;96253.84;5027181;28;20089;-51
2021/07/16 02:10:15;;;;;;;2.80;1.20;;;;;;;21.25;100.00;96253.66;5025001;28;20061;-49
2021/07/16 02:12:45;;;;;;;1.73;1.10;;;;;;;20.76;100.00;96265.91;5023183;28;20088;-50
2021/07/16 02:15:15;;;;;;;4.95;0.95;;;;;;;20.66;100.00;96265.53;5020186;28;20053;-47
2021/07/16 02:17:44;;;;;;;3.30;1.35;;;;;;;20.94;100.00;96261.69;5025195;28;20696;-49
2021/07/16 02:20:23;;;;;;;1.30;1.20;;;;;;;20.61;100.00;96268.03;5023358;28;20179;-50
2021/07/16 02:22:52;;;;;;;3.03;1.50;;;;;;;20.40;100.00;96269.09;5026803;28;20080;-46
2021/07/16 02:25:22;;;;;;;1.75;1.08;;;;;;;20.80;100.00;96268.97;5020894;28;20065;-50
2021/07/16 02:27:54;;;;;;;1.75;1.05;;;;;;;20.85;100.00;96264.63;5022464;28;20079;-52
2021/07/16 02:30:23;;;;;;;3.10;1.40;;;;;;;21.59;100.00;96264.19;5021484;28;20639;-46
2021/07/16 02:32:52;;;;;;;2.53;1.35;;;;;;;21.39;100.00;96254.41;5025568;28;20067;-49
2021/07/16 02:35:20;;;;;;;3.35;1.40;;;;;;;21.54;100.00;96257.63;5024279;28;20077;-46
2021/07/16 02:37:49;;;;;;;2.35;1.17;;;;;;;21.67;100.00;96259.34;5027009;28;20085;-52
2021/07/16 02:40:18;;;;;;;9.48;1.30;;;;;;;21.25;100.00;96264.38;5022742;28;20069;-49
2021/07/16 02:42:46;;;;;;;1.40;0.90;;;;;;;21.95;100.00;96275.00;5021798;28;20073;-52
2021/07/16 02:45:18;;;;;;;3.45;1.40;;;;;;;21.30;100.00;96267.25;5025389;28;20061;-50
2021/07/16 02:47:47;;;;;;;1.23;1.10;;;;;;;21.34;100.00;96273.03;5022860;28;20515;-52
2021/07/16 02:50:17;;;;;;;3.15;1.30;;;;;;;21.32;100.00;96270.53;5023943;28;20084;-52
2021/07/16 02:52:46;;;;;;;5.22;1.40;;;;;;;21.77;100.00;96275.78;5027069;28;20084;-52
2021/07/16 02:55:14;;;;;;;3.10;1.20;;;;;;;21.45;100.00;96271.53;5022758;28;20738;-54
2021/07/16 02:57:43;;;;;;;5.28;1.40;;;;;;;21.84;100.00;96274.91;5022313;28;20065;-50
2021/07/16 03:00:14;;;;;;;4.63;1.15;;;;;;;21.96;100.00;96276.66;5025587;28;20562;-54
2021/07/16 03:02:45;;;;;;;1.83;1.10;;;;;;;21.35;100.00;96274.69;5020640;28;20061;-52
2021/07/16 03:05:16;;;;;;;2.38;1.20;;;;;;;21.94;100.00;96276.06;5024244;28;20080;-47
2021/07/16 03:07:45;;;;;;;2.17;1.20;;;;;;;21.78;100.00;96281.97;5026109;28;20092;-47
2021/07/16 03:10:16;;;;;;;2.90;1.13;;;;;;;21.81;100.00;96278.84;5024929;28;20499;-52
2021/07/16 03:12:44;;;;;;;1.40;1.13;;;;;;;21.96;100.00;96275.84;5022167;28;20131;-49
2021/07/16 03:15:16;;;;;;;2.00;1.00;;;;;;;22.09;100.00;96281.06;5023998;28;20052;-51
2021/07/16 03:17:46;;;;;;;2.13;1.20;;;;;;;22.24;100.00;96276.22;5024496;28;20069;-50
2021/07/16 03:20:16;;;;;;;1.83;1.15;;;;;;;21.40;100.00;96280.19;5024700;28;20138;-54
2021/07/16 03:22:44;;;;;;;1.67;1.20;;;;;;;21.23;100.00;96282.56;5025681;28;20081;-48
2021/07/16 03:25:15;;;;;;;2.28;1.13;;;;;;;21.65;100.00;96277.56;5025164;28;20064;-46
2021/07/16 03:27:43;;;;;;;;;;;;;;;21.46;100.00;96282.03;5024439;28;20080;-50
2021/07/16 03:30:14;;;;;;;2.20;1.17;;;;;;;21.14;100.00;96285.72;5023402;28;20414;-49
2021/07/16 03:32:43;;;;;;;2.35;1.20;;;;;;;20.97;100.00;96291.59;5020685;28;20065;-56
2021/07/16 03:35:13;;;;;;;1.30;1.10;;;;;;;21.12;100.00;96290.47;5024875;28;20077;-49
2021/07/16 03:37:42;;;;;;;;;;;;;;;21.18;100.00;96298.47;5021634;28;20078;-48
2021/07/16 03:40:13;;;;;;;5.03;1.25;;;;;;;21.40;100.00;96295.47;5029117;28;19956;-48
2021/07/16 03:42:42;;;;;;;3.08;1.40;;;;;;;21.00;100.00;96290.34;5029669;28;20075;-49
2021/07/16 03:45:13;;;;;;;2.97;1.27;;;;;;;21.48;100.00;96296.06;5025385;28;20057;-48
2021/07/16 03:47:42;;;;;;;3.00;1.52;;;;;;;20.81;100.00;96290.19;5027217;28;20072;-52
2021/07/16 03:50:13;;;;;;;1.65;1.10;;;;;;;20.58;100.00;96293.41;5027742;28;20057;-46
2021/07/16 03:52:41;;;;;;;2.40;1.25;;;;;;;20.89;100.00;96283.78;5027011;28;20512;-51
2021/07/16 03:55:12;;;;;;;4.65;1.30;;;;;;;20.35;100.00;96296.53;5025905;28;20080;-49
2021/07/16 03:57:42;;;;;;;1.58;1.25;;;;;;;21.00;100.00;96296.50;5030324;28;20065;-47
2021/07/16 04:00:12;;;;;;;2.97;1.30;;;;;;;20.71;100.00;96308.59;5028669;28;20072;-46
2021/07/16 04:02:42;;;;;;;3.65;1.48;;;;;;;20.81;100.00;96322.38;5026636;28;20068;-52
2021/07/16 04:05:13;;;;;;;5.50;1.40;;;;;;;20.99;100.00;96316.34;5020520;28;20088;-50
2021/07/16 04:07:48;;;;;;;5.88;1.50;;;;;;;20.53;100.00;96322.66;5030743;28;20118;-49
2021/07/16 04:10:18;;;;;;;2.92;1.30;;;;;;;20.72;100.00;96322.84;5024829;28;20064;-47
2021/07/16 04:12:51;;;;;;;3.25;1.45;;;;;;;20.56;100.00;96326.78;5027308;28;20084;-50
2021/07/16 04:15:19;;;;;;;3.25;1.20;;;;;;;20.47;100.00;96320.78;5027924;28;20076;-46
2021/07/16 04:17:48;;;;;;;6.45;1.40;;;;;;;21.21;100.00;96324.06;5025444;28;20072;-46
2021/07/16 04:20:17;;;;;;;1.77;1.30;;;;;;;21.37;100.00;96320.06;5024675;28;20092;-48
2021/07/16 04:22:46;;;;;;;3.78;1.58;;;;;;;21.22;100.00;96334.56;5028934;28;20088;-47
2021/07/16 04:25:17;;;;;;;3.50;1.45;;;;;;;21.23;100.00;96333.53;5025646;28;20068;-47
2021/07/16 04:27:46;;;;;;;3.70;1.60;;;;;;;21.86;100.00;96329.22;5026061;28;20523;-49
2021/07/16 04:30:16;;;;;;;1.80;1.30;;;;;;;22.25;100.00;96336.13;5022185;28;20437;-46
2021/07/16 04:33:05;;;;;;;76.63;68.75;;;;;;;22.45;100.00;96336.75;5025075;28;20052;-50
2021/07/16 04:35:35;;;;;;;3.33;1.98;;;;;;;22.51;100.00;96341.25;5024269;28;20072;-53
2021/07/16 04:38:04;;;;;;;2.58;1.55;;;;;;;22.70;100.00;96336.69;5028218;28;20088;-47
2021/07/16 04:40:34;;;;;;;4.03;1.40;;;;;;;22.86;100.00;96340.66;5028045;28;20065;-49
2021/07/16 04:43:03;;;;;;;4.47;1.58;;;;;;;22.85;100.00;96339.03;5028204;28;20065;-48
2021/07/16 04:45:37;;;;;;;4.80;1.20;;;;;;;22.98;100.00;96344.25;5024937;28;20166;-46
2021/07/16 04:48:06;;;;;;;2.45;1.50;;;;;;;23.08;100.00;96354.47;5025369;28;20072;-47
2021/07/16 04:50:38;;;;;;;2.75;1.17;;;;;;;22.64;100.00;96348.34;5026535;28;20568;-47
2021/07/16 04:53:06;;;;;;;6.88;1.50;;;;;;;23.83;100.00;96353.28;5029122;28;20077;-46
2021/07/16 04:55:35;;;;;;;2.40;1.20;;;;;;;23.72;100.00;96359.47;5026216;28;21364;-48
2021/07/16 04:58:03;;;;;;;1.45;1.10;;;;;;;24.06;100.00;96352.50;5027262;28;20084;-51
2021/07/16 05:00:32;;;;;;;3.70;1.23;;;;;;;24.13;100.00;96356.72;5029300;28;20641;-47
2021/07/16 05:03:01;;;;;;;2.53;1.00;;;;;;;23.99;100.00;96357.19;5023616;28;20076;-47
2021/07/16 05:05:30;;;;;;;3.53;1.02;;;;;;;22.48;100.00;96359.69;5027267;28;20107;-49
2021/07/16 05:07:59;;;;;;;2.88;1.55;;;;;;;22.28;100.00;96355.31;5029156;28;20081;-46
2021/07/16 05:10:28;;;;;;;1.70;1.30;;;;;;;22.31;100.00;96353.25;5025668;28;20091;-52
2021/07/16 05:12:56;;;;;;;1.75;1.30;;;;;;;22.23;100.00;96349.78;5007316;28;20057;-47
2021/07/16 05:15:25;;;;;;;3.13;1.30;;;;;;;22.12;100.00;96355.84;5009695;28;20534;-50
2021/07/16 05:17:53;;;;;;;5.22;1.40;;;;;;;21.90;100.00;96352.72;5025769;28;20080;-47
2021/07/16 05:20:22;;;;;;;1.70;1.33;;;;;;;22.53;100.00;96349.06;5026590;28;20045;-49
2021/07/16 05:22:55;;;;;;;2.90;1.48;;;;;;;22.58;100.00;96345.75;5027283;28;20061;-47
2021/07/16 05:25:26;;;;;;;3.25;1.42;;;;;;;22.81;100.00;96353.94;5029065;28;20068;-50
2021/07/16 05:27:54;;;;;;;1.90;1.40;;;;;;;23.56;100.00;96353.63;5020524;28;20072;-53
2021/07/16 05:30:23;;;;;;;4.53;1.40;;;;;;;23.40;100.00;96348.88;5025728;28;20077;-51
2021/07/16 05:32:51;;;;;;;4.28;1.70;;;;;;;22.69;100.00;96348.50;5026864;28;20056;-52
2021/07/16 05:35:20;;;;;;;3.17;1.50;;;;;;;23.22;100.00;96353.25;5028362;28;20428;-48
2021/07/16 05:37:50;;;;;;;2.53;1.60;;;;;;;22.39;100.00;96351.06;5025439;28;20084;-47
2021/07/16 05:40:18;;;;;;;5.60;1.70;;;;;;;22.70;100.00;96354.69;5027228;28;20438;-50
2021/07/16 05:42:48;;;;;;;4.25;1.80;;;;;;;22.54;100.00;96352.59;5036881;28;20061;-47
2021/07/16 05:45:16;;;;;;;5.53;2.13;;;;;;;22.97;100.00;96352.56;5024003;28;20060;-48
2021/07/16 05:47:45;;;;;;;2.08;1.88;;;;;;;23.10;100.00;96354.28;5024994;28;20068;-48
2021/07/16 05:50:13;;;;;;;3.03;1.83;;;;;;;23.16;100.00;96356.06;5027650;28;20459;-47
2021/07/16 05:52:42;;;;;;;4.25;2.35;;;;;;;23.61;100.00;96356.47;5028369;28;20064;-52
2021/07/16 05:55:11;;;;;;;5.05;2.50;;;;;;;23.60;100.00;96357.50;5025207;28;20072;-54
2021/07/16 05:57:40;;;;;;;5.22;2.55;;;;;;;23.42;100.00;96350.31;5021277;28;20053;-51
2021/07/16 06:00:11;;;;;;;4.30;2.50;;;;;;;23.93;100.00;96343.56;5026632;28;20503;-50
2021/07/16 06:02:39;;;;;;;2.58;2.30;;;;;;;24.08;100.00;96359.28;5025808;28;20104;-52
2021/07/16 06:05:09;;;;;;;5.18;2.30;;;;;;;24.39;100.00;96360.81;5009499;28;20441;-49
2021/07/16 06:07:37;;;;;;;4.93;2.30;;;;;;;24.51;100.00;96368.97;5025841;28;20057;-52
2021/07/16 06:10:07;;;;;;;3.95;2.70;;;;;;;25.06;100.00;96357.72;5025441;28;20526;-53
2021/07/16 06:12:36;;;;;;;4.32;2.55;;;;;;;24.38;100.00;96364.56;5022733;28;20518;-52
2021/07/16 06:15:06;;;;;;;2.75;2.53;;;;;;;24.52;100.00;96369.78;5023881;28;20065;-49
2021/07/16 06:17:36;;;;;;;4.38;2.50;;;;;;;23.61;100.00;96369.13;5027429;28;20072;-50
2021/07/16 06:20:06;;;;;;;4.47;2.20;;;;;;;23.97;100.00;96367.34;5026781;28;20060;-52
2021/07/16 06:22:35;;;;;;;2.40;2.20;;;;;;;24.51;100.00;96374.34;5025953;28;20602;-51
2021/07/16 06:25:04;;;;;;;3.30;2.17;;;;;;;24.42;100.00;96362.25;5023745;28;20072;-49
2021/07/16 06:27:32;;;;;;;3.38;2.30;;;;;;;24.26;100.00;96362.94;5025418;28;20067;-53
2021/07/16 06:30:01;;;;;;;3.05;2.60;;;;;;;24.63;100.00;96366.25;5022517;28;20463;-50
2021/07/16 06:32:30;;;;;;;5.40;2.83;;;;;;;24.16;100.00;96367.03;5025418;28;20064;-51
2021/07/16 06:34:59;;;;;;;2.67;2.30;;;;;;;24.25;100.00;96363.97;5027190;28;20068;-49
2021/07/16 06:37:28;;;;;;;6.70;2.53;;;;;;;24.05;100.00;96370.50;5009628;28;20057;-48
2021/07/16 06:39:57;;;;;;;4.30;2.53;;;;;;;24.09;100.00;96374.41;5023586;28;20507;-46
2021/07/16 06:42:27;;;;;;;2.50;2.30;;;;;;;24.70;100.00;96383.13;5023833;28;20594;-48
2021/07/16 06:44:55;;;;;;;3.33;2.50;;;;;;;25.72;100.00;96377.13;5026242;28;20072;-54
2021/07/16 06:47:24;;;;;;;3.97;2.30;;;;;;;25.53;100.00;96387.31;5028300;28;20097;-54
2021/07/16 06:50:12;;;;;;;3.92;2.45;;;;;;;25.93;96.72;96391.00;5017092;28;20053;-51
2021/07/16 06:52:41;;;;;;;3.35;2.15;;;;;;;25.74;94.66;96395.75;5026676;28;20143;-55
2021/07/16 06:55:10;;;;;;;4.15;2.28;;;;;;;26.26;93.82;96403.75;5024662;28;20076;-47
2021/07/16 06:57:38;;;;;;;2.60;2.40;;;;;;;26.69;87.99;96403.09;5022099;28;20061;-50
2021/07/16 07:00:07;;;;;;;3.67;2.17;;;;;;;26.87;87.56;96404.69;5025010;28;20069;-50
2021/07/16 07:02:36;;;;;;;2.43;2.23;;;;;;;26.77;82.63;96409.13;5024687;28;20068;-50
2021/07/16 07:05:06;;;;;;;3.47;2.10;;;;;;;25.83;96.29;96417.84;5026564;28;20073;-50
2021/07/16 07:07:35;;;;;;;3.40;1.90;;;;;;;26.79;87.20;96425.94;5022903;28;20069;-49
2021/07/16 07:10:05;;;;;;;2.20;2.00;;;;;;;26.43;86.38;96430.78;5021262;28;20065;-49
2021/07/16 07:12:36;;;;;;;2.50;1.88;;;;;;;26.42;86.70;96423.72;5023371;28;20057;-49
2021/07/16 07:15:05;;;;;;;3.50;1.92;;;;;;;25.45;96.38;96427.38;5023038;28;20471;-51
2021/07/16 07:17:39;;;;;;;3.13;2.00;;;;;;;25.32;100.00;96425.75;5024359;28;20065;-55
2021/07/16 07:20:08;;;;;;;2.33;1.67;;;;;;;26.45;86.17;96434.06;5027962;28;20092;-46
2021/07/16 07:22:38;;;;;;;2.20;1.87;;;;;;;27.40;78.45;96429.53;5022143;28;20268;-50
2021/07/16 07:25:07;;;;;;;2.35;1.52;;;;;;;28.30;67.19;96432.66;5021037;28;20073;-49
2021/07/16 07:27:36;;;;;;;2.10;1.50;;;;;;;27.82;65.90;96440.59;5006845;28;20447;-51
2021/07/16 07:30:06;;;;;;;1.70;1.60;;;;;;;27.52;71.14;96434.78;5026371;28;20670;-49
2021/07/16 07:32:35;;;;;;;1.65;1.40;;;;;;;27.56;69.62;96441.34;5022821;28;20069;-49
2021/07/16 07:35:05;;;;;;;1.73;1.58;;;;;;;27.68;66.46;96450.16;5007738;28;20065;-48
2021/07/16 07:37:33;;;;;;;2.00;1.63;;;;;;;26.95;74.16;96457.59;5022809;28;20570;-48
2021/07/16 07:40:05;;;;;;;1.50;1.40;;;;;;;26.46;81.40;96460.88;5023697;28;20436;-47
2021/07/16 07:42:34;;;;;;;2.47;1.35;;;;;;;27.08;73.53;96457.25;5021335;28;20065;-47
2021/07/16 07:45:02;;;;;;;3.42;1.52;;;;;;;27.43;70.67;96465.03;5029951;28;20068;-52
2021/07/16 07:47:33;;;;;;;2.80;1.45;;;;;;;28.62;59.51;96457.91;5026292;28;20061;-52
2021/07/16 07:50:05;;;;;;;1.60;1.30;;;;;;;27.33;66.92;96467.63;5024524;28;20081;-55
2021/07/16 07:52:33;;;;;;;1.95;1.50;;;;;;;26.85;73.29;96460.97;5018314;28;20503;-51
2021/07/16 07:55:04;;;;;;;3.20;1.50;;;;;;;27.17;78.02;96461.16;5025352;28;20061;-52
2021/07/16 07:57:32;;;;;;;1.83;1.27;;;;;;;27.48;76.96;96466.97;5026667;28;20123;-49
2021/07/16 08:00:00;;;;;;;3.92;1.58;;;;;;;27.74;81.74;96464.59;5022870;28;20084;-50
2021/07/16 08:02:29;;;;;;;3.33;1.50;;;;;;;28.48;73.26;96458.59;5022869;28;20151;-51
2021/07/16 08:04:57;;;;;;;3.90;1.50;;;;;;;29.00;68.06;96458.72;5025831;28;20081;-49
2021/07/16 08:07:26;;;;;;;3.10;1.40;;;;;;;27.90;74.24;96466.41;5023002;28;20071;-52
2021/07/16 08:09:54;;;;;;;3.22;1.77;;;;;;;27.55;76.13;96462.19;5020914;28;20073;-49
2021/07/16 08:12:24;;;;;;;5.35;1.60;;;;;;;27.98;76.66;96460.56;5026120;28;20068;-49
2021/07/16 08:14:52;;;;;;;3.28;1.35;;;;;;;27.31;79.42;96469.75;5021295;28;20076;-50
2021/07/16 08:17:21;;;;;;;3.08;1.50;;;;;;;27.43;94.37;96472.34;5022845;28;20077;-51
2021/07/16 08:19:49;;;;;;;1.90;1.60;;;;;;;27.88;79.27;96468.59;5024889;28;20089;-49
2021/07/16 08:22:17;;;;;;;5.03;3.58;;;;;;;28.32;80.85;96469.31;5025242;28;20061;-49
2021/07/16 08:24:46;;;;;;;2.22;1.50;;;;;;;27.86;74.97;96468.00;5023524;28;20443;-48
2021/07/16 08:27:14;;;;;;;1.80;1.45;;;;;;;26.74;84.65;96465.41;5026969;28;20072;-49
2021/07/16 08:29:44;;;;;;;4.47;1.52;;;;;;;27.49;79.12;96465.91;5024135;28;20066;-49
2021/07/16 08:32:13;;;;;;;2.20;1.33;;;;;;;27.57;76.94;96467.38;5028604;28;20068;-48
2021/07/16 08:34:41;;;;;;;3.08;1.20;;;;;;;28.26;76.04;96472.22;5026767;28;20073;-48
2021/07/16 08:37:09;;;;;;;2.17;1.48;;;;;;;26.92;85.14;96480.53;5026016;28;20104;-51
2021/07/16 08:39:38;;;;;;;3.17;1.60;;;;;;;27.19;78.17;96477.19;5029112;28;20492;-51
2021/07/16 08:42:07;;;;;;;1.92;1.75;;;;;;;27.50;82.30;96474.88;5024186;28;20076;-49
2021/07/16 08:44:36;;;;;;;1.98;1.80;;;;;;;27.02;79.69;96477.19;5024604;28;20131;-49
2021/07/16 08:47:06;;;;;;;2.25;1.77;;;;;;;28.52;67.48;96479.53;5030587;28;20389;-48
2021/07/16 08:49:35;;;;;;;;;;;;;;;27.30;82.61;96484.38;5029733;28;20358;-49
2021/07/16 08:52:03;;;;;;;3.67;1.50;;;;;;;28.37;71.72;96485.59;5027938;28;20366;-48
2021/07/16 08:54:32;;;;;;;5.57;1.80;;;;;;;26.74;84.83;96492.47;5026720;28;20080;-48
2021/07/16 08:57:00;;;;;;;5.90;2.25;;;;;;;26.97;83.06;96494.13;5028516;28;22027;-52
2021/07/16 08:59:29;;;;;;;1.80;1.70;;;;;;;27.02;79.72;96498.00;5025509;28;20107;-52
2021/07/16 09:02:00;;;;;;;2.05;1.83;;;;;;;28.31;71.23;96497.47;5027185;28;20084;-50
2021/07/16 09:04:37;;;;;;;3.70;1.45;;;;;;;27.49;74.32;96501.13;5025949;28;20073;-49
2021/07/16 09:07:05;;;;;;;5.25;1.85;;;;;;;29.41;61.65;96493.47;5008775;28;20061;-53
2021/07/16 09:09:37;;;;;;;2.85;1.63;;;;;;;27.76;67.21;96493.09;5024677;28;20075;-52
2021/07/16 09:12:08;;;;;;;1.42;1.33;;;;;;;28.21;67.83;96496.56;5022623;28;20342;-53
2021/07/16 09:14:37;;;;;;;1.80;1.58;;;;;;;28.39;71.37;96490.81;5028140;28;20399;-49
2021/07/16 09:17:08;;;;;;;2.50;1.67;;;;;;;29.51;62.25;96491.63;5029108;28;20488;-51
2021/07/16 09:19:39;;;;;;;1.77;1.67;;;;;;;27.39;74.49;96493.72;5024961;28;20551;-50
2021/07/16 09:22:10;;;;;;;2.25;1.60;;;;;;;29.50;64.41;96490.00;5024820;28;20076;-55
2021/07/16 09:24:43;;;;;;;2.80;2.00;;;;;;;27.10;73.31;96497.59;5028506;28;20541;-52
2021/07/16 09:27:31;;;;;;;1.85;1.65;;;;;;;29.74;57.89;96492.31;5020235;28;20104;-51
2021/07/16 09:30:13;;;;;;;3.17;1.63;;;;;;;29.40;61.90;96486.41;5025290;28;20068;-51
2021/07/16 09:32:42;;;;;;;1.98;1.70;;;;;;;28.70;65.27;96486.47;5023721;28;20515;-54
2021/07/16 09:35:17;;;;;;;3.10;1.83;;;;;;;29.23;60.28;96483.88;5027236;28;20073;-50
2021/07/16 09:37:50;;;;;;;3.20;2.10;;;;;;;27.85;69.35;96483.44;5029883;28;20559;-51
2021/07/16 09:40:37;;;;;;;2.10;1.90;;;;;;;29.13;61.06;96483.81;5026451;28;20075;-51
2021/07/16 09:43:07;;;;;;;2.58;1.50;;;;;;;27.51;75.04;96480.03;5022089;28;20531;-52
2021/07/16 09:45:36;;;;;;;1.83;1.50;;;;;;;28.33;69.54;96475.53;5027913;28;20523;-52
2021/07/16 09:48:24;;;;;;;5.60;1.60;;;;;;;28.36;69.92;96481.25;5027171;28;20069;-46
2021/07/16 09:51:12;;;;;;;2.75;1.88;;;;;;;27.22;81.22;96476.69;5023585;28;20555;-49
2021/07/16 09:53:41;;;;;;;3.65;1.85;;;;;;;27.38;79.08;96485.81;5025118;28;20058;-49
2021/07/16 09:56:13;;;;;;;3.08;1.83;;;;;;;27.70;80.86;96466.97;5029276;28;20088;-46
2021/07/16 09:59:03;;;;;;;2.45;1.60;;;;;;;28.27;75.47;96466.53;5024201;28;20057;-47
2021/07/16 10:01:32;;;;;;;3.00;1.85;;;;;;;29.07;63.56;96474.81;5026987;28;20073;-46
2021/07/16 10:04:02;;;;;;;2.42;1.70;;;;;;;28.81;62.87;96471.91;5023666;28;20068;-47
2021/07/16 10:06:32;;;;;;;2.97;1.60;;;;;;;27.47;74.73;96465.34;5024242;28;20180;-50
2021/07/16 10:09:01;;;;;;;2.20;1.45;;;;;;;28.17;71.12;96469.13;5025817;28;20514;-49
2021/07/16 10:11:30;;;;;;;2.03;1.58;;;;;;;26.81;83.18;96469.84;5025829;28;20572;-50
2021/07/16 10:14:00;;;;;;;1.90;1.70;;;;;;;27.30;72.37;96476.25;5024757;28;20085;-50
2021/07/16 10:16:29;;;;;;;;;;;;;;;27.72;69.68;96470.25;5024683;28;20080;-49
2021/07/16 10:18:57;;;;;;;2.78;1.58;;;;;;;28.80;62.90;96464.00;5026105;28;19975;-45
2021/07/16 10:21:25;;;;;;;1.58;1.48;;;;;;;28.73;60.02;96471.53;5026203;28;20490;-50
2021/07/16 10:23:56;;;;;;;1.55;1.33;;;;;;;29.40;61.37;96459.25;5021610;28;20085;-51
2021/07/16 10:26:26;;;;;;;1.67;1.25;;;;;;;29.27;58.94;96464.06;5024843;28;20394;-49
2021/07/16 10:28:55;;;;;;;1.95;1.30;;;;;;;29.66;56.78;96465.63;5027564;28;20096;-52
2021/07/16 10:31:37;;;;;;;1.40;1.10;;;;;;;30.23;53.36;96445.69;5024787;28;20147;-51
2021/07/16 10:34:28;;;;;;;1.63;0.90;;;;;;;30.73;51.00;96455.78;5021809;28;20066;-53
2021/07/16 10:36:58;;;;;;;11.52;8.20;;;;;;;29.30;55.42;96455.38;5024521;28;20072;-48
2021/07/16 10:39:52;;;;;;;1.38;1.00;;;;;;;28.70;55.00;96459.34;5025151;28;20065;-49
2021/07/16 10:42:44;;;;;;;6.35;3.70;;;;;;;28.95;64.80;96447.00;5025667;28;20540;-51
2021/07/16 10:45:13;;;;;;;1.60;1.20;;;;;;;30.10;63.08;96452.41;5021987;28;20515;-49
2021/07/16 10:47:44;;;;;;;1.27;1.00;;;;;;;29.02;57.58;96451.16;5025275;28;20080;-51
2021/07/16 10:50:14;;;;;;;1.23;0.90;;;;;;;29.14;57.62;96452.84;5026230;28;20464;-48
2021/07/16 10:52:46;;;;;;;;;;;;;;;30.23;59.81;96448.41;5027455;28;20077;-52
2021/07/16 10:55:17;;;;;;;0.80;0.80;;;;;;;30.33;51.61;96451.13;5021971;28;19960;-49
2021/07/16 10:57:48;;;;;;;0.93;0.80;;;;;;;29.92;53.68;96448.31;5025262;28;20065;-51
2021/07/16 11:00:48;;;;;;;1.55;0.90;;;;;;;29.88;51.21;96441.78;5022078;28;20124;-46
2021/07/16 11:03:17;;;;;;;2.85;0.88;;;;;;;29.37;52.24;96455.16;5026259;28;20092;-48
2021/07/16 11:05:55;;;;;;;2.85;1.00;;;;;;;28.95;55.38;96455.97;5022972;28;20479;-55
2021/07/16 11:09:02;;;;;;;1.92;1.20;;;;;;;29.25;51.35;96449.09;5022687;28;20583;-47
2021/07/16 11:11:40;;;;;;;0.93;0.73;;;;;;;30.47;49.84;96444.06;5021788;28;20515;-51
2021/07/16 11:14:22;;;;;;;2.78;0.90;;;;;;;29.61;49.47;96450.13;5028370;28;20081;-51
2021/07/16 11:16:51;;;;;;;2.00;0.90;;;;;;;30.02;49.13;96437.44;5022853;28;20448;-50
2021/07/16 11:19:24;;;;;;;1.63;0.80;;;;;;;30.37;46.91;96444.06;5016860;28;20064;-49
2021/07/16 11:22:04;;;;;;;0.98;0.98;;;;;;;29.78;47.39;96439.03;5024770;28;20061;-49
2021/07/16 11:24:34;;;;;;;1.20;1.10;;;;;;;30.12;52.35;96444.00;5026613;28;20069;-46
2021/07/16 11:27:10;;;;;;;1.05;0.88;;;;;;;30.82;47.84;96439.72;5022660;28;20084;-50
2021/07/16 11:29:41;;;;;;;1.25;0.90;;;;;;;30.45;50.51;96439.97;5023683;28;20524;-49
2021/07/16 11:32:12;;;;;;;1.77;0.82;;;;;;;28.98;54.16;96436.44;5020084;28;20081;-53
2021/07/16 11:34:56;;;;;;;1.05;0.90;;;;;;;30.97;45.10;96441.59;5027126;28;20452;-56
2021/07/16 11:37:27;;;;;;;1.10;0.90;;;;;;;32.02;42.59;96432.50;5019825;28;20072;-52
2021/07/16 11:40:00;;;;;;;2.35;1.08;;;;;;;31.77;43.46;96438.91;5021621;28;20069;-54
2021/07/16 11:42:30;;;;;;;0.90;0.82;;;;;;;31.34;45.40;96438.53;5025498;28;20076;-48
2021/07/16 11:44:58;;;;;;;;;;;;;;;31.60;42.35;96435.72;5025425;28;20077;-51